sensor_id;sensor_type;location;lat;lon;timestamp;P1;durP1;ratioP1;P2;durP2;ratioP2
14187;SDS011;7175;51.978;5.330;2023-07-31T00:00:34;154.80;;;143.20;;
14187;SDS011;7175;51.978;5.330;2023-07-31T00:03:10;142.77;;;132.07;;
14187;SDS011;7175;51.978;5.330;2023-07-31T00:05:39;141.47;;;130.80;;
14187;SDS011;7175;51.978;5.330;2023-07-31T00:08:09;150.80;;;139.13;;
14187;SDS011;7175;51.978;5.330;2023-07-31T00:10:38;150.33;;;138.63;;
14187;SDS011;7175;51.978;5.330;2023-07-31T00:13:07;151.37;;;139.57;;
14187;SDS011;7175;51.978;5.330;2023-07-31T00:15:36;146.87;;;135.33;;
14187;SDS011;7175;51.978;5.330;2023-07-31T00:18:05;147.23;;;135.43;;
14187;SDS011;7175;51.978;5.330;2023-07-31T00:20:37;148.67;;;136.87;;
14187;SDS011;7175;51.978;5.330;2023-07-31T00:23:05;148.40;;;136.70;;
14187;SDS011;7175;51.978;5.330;2023-07-31T00:25:35;147.17;;;135.37;;
14187;SDS011;7175;51.978;5.330;2023-07-31T00:28:05;148.23;;;136.23;;
14187;SDS011;7175;51.978;5.330;2023-07-31T00:30:35;145.57;;;133.83;;
14187;SDS011;7175;51.978;5.330;2023-07-31T00:33:03;142.27;;;130.97;;
14187;SDS011;7175;51.978;5.330;2023-07-31T00:35:31;148.00;;;135.90;;
14187;SDS011;7175;51.978;5.330;2023-07-31T00:38:00;149.10;;;137.00;;
14187;SDS011;7175;51.978;5.330;2023-07-31T00:40:28;149.37;;;137.30;;
14187;SDS011;7175;51.978;5.330;2023-07-31T00:42:59;150.83;;;138.73;;
14187;SDS011;7175;51.978;5.330;2023-07-31T00:45:29;148.70;;;136.60;;
14187;SDS011;7175;51.978;5.330;2023-07-31T00:47:59;147.83;;;136.07;;
14187;SDS011;7175;51.978;5.330;2023-07-31T00:50:29;148.20;;;136.40;;
14187;SDS011;7175;51.978;5.330;2023-07-31T00:52:58;149.10;;;137.13;;
14187;SDS011;7175;51.978;5.330;2023-07-31T00:55:27;151.57;;;139.50;;
14187;SDS011;7175;51.978;5.330;2023-07-31T00:57:56;154.53;;;142.23;;
14187;SDS011;7175;51.978;5.330;2023-07-31T01:00:26;151.33;;;139.33;;
14187;SDS011;7175;51.978;5.330;2023-07-31T01:02:54;147.87;;;136.27;;
14187;SDS011;7175;51.978;5.330;2023-07-31T01:05:25;145.77;;;134.23;;
14187;SDS011;7175;51.978;5.330;2023-07-31T01:08:03;147.23;;;135.83;;
14187;SDS011;7175;51.978;5.330;2023-07-31T01:10:37;144.10;;;132.83;;
14187;SDS011;7175;51.978;5.330;2023-07-31T01:13:16;144.13;;;132.93;;
14187;SDS011;7175;51.978;5.330;2023-07-31T01:15:47;144.20;;;132.93;;
14187;SDS011;7175;51.978;5.330;2023-07-31T01:18:15;145.40;;;134.13;;
14187;SDS011;7175;51.978;5.330;2023-07-31T01:20:44;144.77;;;133.77;;
14187;SDS011;7175;51.978;5.330;2023-07-31T01:26:18;147.23;;;136.17;;
14187;SDS011;7175;51.978;5.330;2023-07-31T01:28:53;145.17;;;134.17;;
14187;SDS011;7175;51.978;5.330;2023-07-31T01:31:29;144.80;;;133.80;;
14187;SDS011;7175;51.978;5.330;2023-07-31T01:34:00;148.83;;;137.83;;
14187;SDS011;7175;51.978;5.330;2023-07-31T01:36:30;150.33;;;139.20;;
14187;SDS011;7175;51.978;5.330;2023-07-31T01:39:04;145.57;;;134.83;;
14187;SDS011;7175;51.978;5.330;2023-07-31T01:41:35;145.53;;;134.80;;
14187;SDS011;7175;51.978;5.330;2023-07-31T01:44:05;144.97;;;134.27;;
14187;SDS011;7175;51.978;5.330;2023-07-31T01:46:35;141.00;;;130.60;;
14187;SDS011;7175;51.978;5.330;2023-07-31T01:49:06;129.27;;;119.67;;
14187;SDS011;7175;51.978;5.330;2023-07-31T01:51:34;131.17;;;121.17;;
14187;SDS011;7175;51.978;5.330;2023-07-31T01:54:03;128.80;;;119.20;;
14187;SDS011;7175;51.978;5.330;2023-07-31T01:56:31;128.03;;;118.43;;
14187;SDS011;7175;51.978;5.330;2023-07-31T01:59:01;127.93;;;118.47;;
14187;SDS011;7175;51.978;5.330;2023-07-31T02:01:34;123.63;;;114.37;;
14187;SDS011;7175;51.978;5.330;2023-07-31T02:04:03;127.97;;;118.47;;
14187;SDS011;7175;51.978;5.330;2023-07-31T02:06:33;127.57;;;118.00;;
14187;SDS011;7175;51.978;5.330;2023-07-31T02:09:04;138.87;;;128.47;;
14187;SDS011;7175;51.978;5.330;2023-07-31T02:11:35;136.57;;;126.33;;
14187;SDS011;7175;51.978;5.330;2023-07-31T02:14:05;137.83;;;127.37;;
14187;SDS011;7175;51.978;5.330;2023-07-31T02:16:35;137.83;;;127.33;;
14187;SDS011;7175;51.978;5.330;2023-07-31T02:19:07;138.97;;;128.47;;
14187;SDS011;7175;51.978;5.330;2023-07-31T02:21:35;137.10;;;126.87;;
14187;SDS011;7175;51.978;5.330;2023-07-31T02:24:04;139.13;;;128.63;;
14187;SDS011;7175;51.978;5.330;2023-07-31T02:26:32;141.60;;;131.10;;
14187;SDS011;7175;51.978;5.330;2023-07-31T02:29:01;141.73;;;131.23;;
14187;SDS011;7175;51.978;5.330;2023-07-31T02:31:31;139.10;;;128.90;;
14187;SDS011;7175;51.978;5.330;2023-07-31T02:34:03;139.00;;;128.73;;
14187;SDS011;7175;51.978;5.330;2023-07-31T02:36:32;141.50;;;131.17;;
14187;SDS011;7175;51.978;5.330;2023-07-31T02:39:01;141.90;;;131.50;;
14187;SDS011;7175;51.978;5.330;2023-07-31T02:41:30;137.97;;;127.97;;
14187;SDS011;7175;51.978;5.330;2023-07-31T02:44:01;136.10;;;126.30;;
14187;SDS011;7175;51.978;5.330;2023-07-31T02:46:29;140.37;;;130.27;;
14187;SDS011;7175;51.978;5.330;2023-07-31T02:49:04;142.80;;;132.40;;
14187;SDS011;7175;51.978;5.330;2023-07-31T02:51:33;139.17;;;129.20;;
14187;SDS011;7175;51.978;5.330;2023-07-31T02:54:01;138.07;;;128.27;;
14187;SDS011;7175;51.978;5.330;2023-07-31T02:56:29;133.20;;;123.80;;
14187;SDS011;7175;51.978;5.330;2023-07-31T02:59:01;135.60;;;126.10;;
14187;SDS011;7175;51.978;5.330;2023-07-31T03:01:29;131.63;;;122.33;;
14187;SDS011;7175;51.978;5.330;2023-07-31T03:04:00;132.80;;;123.40;;
14187;SDS011;7175;51.978;5.330;2023-07-31T03:06:28;135.47;;;125.77;;
14187;SDS011;7175;51.978;5.330;2023-07-31T03:08:57;135.97;;;126.37;;
14187;SDS011;7175;51.978;5.330;2023-07-31T03:11:25;134.90;;;125.40;;
14187;SDS011;7175;51.978;5.330;2023-07-31T03:13:54;131.60;;;122.40;;
14187;SDS011;7175;51.978;5.330;2023-07-31T03:16:22;128.33;;;119.33;;
14187;SDS011;7175;51.978;5.330;2023-07-31T03:18:51;125.80;;;117.10;;
14187;SDS011;7175;51.978;5.330;2023-07-31T03:21:23;121.07;;;112.67;;
14187;SDS011;7175;51.978;5.330;2023-07-31T03:23:53;123.17;;;114.63;;
14187;SDS011;7175;51.978;5.330;2023-07-31T03:26:21;124.00;;;115.47;;
14187;SDS011;7175;51.978;5.330;2023-07-31T03:28:50;117.53;;;109.43;;
14187;SDS011;7175;51.978;5.330;2023-07-31T03:31:19;117.40;;;109.20;;
14187;SDS011;7175;51.978;5.330;2023-07-31T03:33:49;119.47;;;111.07;;
14187;SDS011;7175;51.978;5.330;2023-07-31T03:36:19;120.07;;;111.70;;
14187;SDS011;7175;51.978;5.330;2023-07-31T03:38:53;120.60;;;112.10;;
14187;SDS011;7175;51.978;5.330;2023-07-31T03:41:23;113.20;;;105.13;;
14187;SDS011;7175;51.978;5.330;2023-07-31T03:43:51;112.30;;;104.57;;
14187;SDS011;7175;51.978;5.330;2023-07-31T03:46:22;110.87;;;103.17;;
14187;SDS011;7175;51.978;5.330;2023-07-31T03:48:55;108.87;;;101.17;;
14187;SDS011;7175;51.978;5.330;2023-07-31T03:51:26;109.07;;;101.47;;
14187;SDS011;7175;51.978;5.330;2023-07-31T03:53:57;110.60;;;102.90;;
14187;SDS011;7175;51.978;5.330;2023-07-31T03:56:25;110.33;;;102.70;;
14187;SDS011;7175;51.978;5.330;2023-07-31T03:58:55;112.80;;;105.00;;
14187;SDS011;7175;51.978;5.330;2023-07-31T04:01:25;103.70;;;96.20;;
14187;SDS011;7175;51.978;5.330;2023-07-31T04:03:56;108.33;;;100.63;;
14187;SDS011;7175;51.978;5.330;2023-07-31T04:06:25;106.77;;;99.23;;
14187;SDS011;7175;51.978;5.330;2023-07-31T04:08:53;110.27;;;102.40;;
14187;SDS011;7175;51.978;5.330;2023-07-31T04:11:25;111.57;;;103.87;;
14187;SDS011;7175;51.978;5.330;2023-07-31T04:13:53;112.30;;;104.50;;
14187;SDS011;7175;51.978;5.330;2023-07-31T04:16:22;110.50;;;103.20;;
14187;SDS011;7175;51.978;5.330;2023-07-31T04:18:54;111.90;;;104.40;;
14187;SDS011;7175;51.978;5.330;2023-07-31T04:21:26;112.93;;;105.53;;
14187;SDS011;7175;51.978;5.330;2023-07-31T04:23:55;109.27;;;101.97;;
14187;SDS011;7175;51.978;5.330;2023-07-31T04:26:24;112.07;;;104.77;;
14187;SDS011;7175;51.978;5.330;2023-07-31T04:28:55;106.97;;;99.67;;
14187;SDS011;7175;51.978;5.330;2023-07-31T04:31:23;108.93;;;101.73;;
14187;SDS011;7175;51.978;5.330;2023-07-31T04:33:51;109.50;;;102.23;;
14187;SDS011;7175;51.978;5.330;2023-07-31T04:36:20;108.27;;;100.87;;
14187;SDS011;7175;51.978;5.330;2023-07-31T04:38:48;107.03;;;99.73;;
14187;SDS011;7175;51.978;5.330;2023-07-31T04:41:21;110.20;;;103.00;;
14187;SDS011;7175;51.978;5.330;2023-07-31T04:43:50;107.97;;;100.77;;
14187;SDS011;7175;51.978;5.330;2023-07-31T04:46:19;108.27;;;101.13;;
14187;SDS011;7175;51.978;5.330;2023-07-31T04:48:47;106.97;;;99.73;;
14187;SDS011;7175;51.978;5.330;2023-07-31T04:51:15;104.80;;;97.30;;
14187;SDS011;7175;51.978;5.330;2023-07-31T04:53:43;101.83;;;94.63;;
14187;SDS011;7175;51.978;5.330;2023-07-31T04:56:12;102.20;;;94.90;;
14187;SDS011;7175;51.978;5.330;2023-07-31T04:58:46;102.83;;;95.43;;
14187;SDS011;7175;51.978;5.330;2023-07-31T05:01:14;103.67;;;96.07;;
14187;SDS011;7175;51.978;5.330;2023-07-31T05:03:43;107.17;;;99.57;;
14187;SDS011;7175;51.978;5.330;2023-07-31T05:06:12;97.93;;;90.73;;
14187;SDS011;7175;51.978;5.330;2023-07-31T05:08:41;108.83;;;100.83;;
14187;SDS011;7175;51.978;5.330;2023-07-31T05:11:10;110.53;;;102.53;;
14187;SDS011;7175;51.978;5.330;2023-07-31T05:13:38;109.07;;;101.17;;
14187;SDS011;7175;51.978;5.330;2023-07-31T05:16:10;113.80;;;105.40;;
14187;SDS011;7175;51.978;5.330;2023-07-31T05:18:39;105.53;;;97.63;;
14187;SDS011;7175;51.978;5.330;2023-07-31T05:21:07;107.40;;;99.30;;
14187;SDS011;7175;51.978;5.330;2023-07-31T05:23:37;108.63;;;100.43;;
14187;SDS011;7175;51.978;5.330;2023-07-31T05:26:06;109.67;;;101.27;;
14187;SDS011;7175;51.978;5.330;2023-07-31T05:28:36;113.27;;;104.57;;
14187;SDS011;7175;51.978;5.330;2023-07-31T05:31:04;120.57;;;111.67;;
14187;SDS011;7175;51.978;5.330;2023-07-31T05:33:36;117.47;;;108.47;;
14187;SDS011;7175;51.978;5.330;2023-07-31T05:36:04;123.17;;;113.80;;
14187;SDS011;7175;51.978;5.330;2023-07-31T05:38:32;121.30;;;111.90;;
14187;SDS011;7175;51.978;5.330;2023-07-31T05:41:01;120.23;;;110.73;;
14187;SDS011;7175;51.978;5.330;2023-07-31T05:43:30;120.73;;;111.20;;
14187;SDS011;7175;51.978;5.330;2023-07-31T05:46:00;118.53;;;109.13;;
14187;SDS011;7175;51.978;5.330;2023-07-31T05:48:32;125.97;;;116.27;;
14187;SDS011;7175;51.978;5.330;2023-07-31T05:51:01;126.20;;;116.50;;
14187;SDS011;7175;51.978;5.330;2023-07-31T05:53:30;121.27;;;111.70;;
14187;SDS011;7175;51.978;5.330;2023-07-31T05:55:59;122.00;;;112.30;;
14187;SDS011;7175;51.978;5.330;2023-07-31T05:58:27;116.43;;;107.20;;
14187;SDS011;7175;51.978;5.330;2023-07-31T06:00:57;124.07;;;114.20;;
14187;SDS011;7175;51.978;5.330;2023-07-31T06:03:25;122.90;;;113.07;;
14187;SDS011;7175;51.978;5.330;2023-07-31T06:05:53;119.47;;;109.77;;
14187;SDS011;7175;51.978;5.330;2023-07-31T06:08:23;115.90;;;106.30;;
14187;SDS011;7175;51.978;5.330;2023-07-31T06:10:53;117.87;;;108.13;;
14187;SDS011;7175;51.978;5.330;2023-07-31T06:13:21;124.33;;;114.07;;
14187;SDS011;7175;51.978;5.330;2023-07-31T06:15:50;123.77;;;113.57;;
14187;SDS011;7175;51.978;5.330;2023-07-31T06:18:20;130.17;;;119.80;;
14187;SDS011;7175;51.978;5.330;2023-07-31T06:20:51;125.40;;;115.30;;
14187;SDS011;7175;51.978;5.330;2023-07-31T06:23:21;120.33;;;110.57;;
14187;SDS011;7175;51.978;5.330;2023-07-31T06:25:52;116.90;;;107.20;;
14187;SDS011;7175;51.978;5.330;2023-07-31T06:28:25;118.23;;;108.53;;
14187;SDS011;7175;51.978;5.330;2023-07-31T06:30:57;118.10;;;108.40;;
14187;SDS011;7175;51.978;5.330;2023-07-31T06:33:26;113.47;;;103.97;;
14187;SDS011;7175;51.978;5.330;2023-07-31T06:35:54;116.43;;;106.77;;
14187;SDS011;7175;51.978;5.330;2023-07-31T06:38:26;112.70;;;103.20;;
14187;SDS011;7175;51.978;5.330;2023-07-31T06:40:54;109.20;;;100.00;;
14187;SDS011;7175;51.978;5.330;2023-07-31T06:43:23;109.47;;;100.37;;
14187;SDS011;7175;51.978;5.330;2023-07-31T06:45:54;116.30;;;106.70;;
14187;SDS011;7175;51.978;5.330;2023-07-31T06:48:23;122.43;;;112.70;;
14187;SDS011;7175;51.978;5.330;2023-07-31T06:50:52;127.10;;;117.50;;
14187;SDS011;7175;51.978;5.330;2023-07-31T06:53:27;131.20;;;121.30;;
14187;SDS011;7175;51.978;5.330;2023-07-31T06:55:57;132.47;;;122.37;;
14187;SDS011;7175;51.978;5.330;2023-07-31T06:58:25;130.07;;;120.20;;
14187;SDS011;7175;51.978;5.330;2023-07-31T07:00:53;133.87;;;123.70;;
14187;SDS011;7175;51.978;5.330;2023-07-31T07:03:23;136.40;;;126.10;;
14187;SDS011;7175;51.978;5.330;2023-07-31T07:05:53;134.90;;;124.80;;
14187;SDS011;7175;51.978;5.330;2023-07-31T07:08:29;132.67;;;122.77;;
14187;SDS011;7175;51.978;5.330;2023-07-31T07:10:58;138.30;;;128.20;;
14187;SDS011;7175;51.978;5.330;2023-07-31T07:13:27;132.00;;;122.20;;
14187;SDS011;7175;51.978;5.330;2023-07-31T07:15:56;132.07;;;122.27;;
14187;SDS011;7175;51.978;5.330;2023-07-31T07:18:28;133.90;;;124.10;;
14187;SDS011;7175;51.978;5.330;2023-07-31T07:20:59;134.97;;;125.23;;
14187;SDS011;7175;51.978;5.330;2023-07-31T07:23:30;130.33;;;120.73;;
14187;SDS011;7175;51.978;5.330;2023-07-31T07:25:58;124.37;;;115.17;;
14187;SDS011;7175;51.978;5.330;2023-07-31T07:28:28;119.07;;;110.03;;
14187;SDS011;7175;51.978;5.330;2023-07-31T07:30:58;124.83;;;115.50;;
14187;SDS011;7175;51.978;5.330;2023-07-31T07:33:28;126.93;;;117.57;;
14187;SDS011;7175;51.978;5.330;2023-07-31T07:36:00;127.70;;;118.37;;
14187;SDS011;7175;51.978;5.330;2023-07-31T07:38:34;128.40;;;119.07;;
14187;SDS011;7175;51.978;5.330;2023-07-31T07:41:02;124.90;;;115.80;;
14187;SDS011;7175;51.978;5.330;2023-07-31T07:43:32;130.03;;;120.53;;
14187;SDS011;7175;51.978;5.330;2023-07-31T07:46:01;128.77;;;119.23;;
14187;SDS011;7175;51.978;5.330;2023-07-31T07:48:30;127.97;;;118.60;;
14187;SDS011;7175;51.978;5.330;2023-07-31T07:50:59;130.63;;;121.00;;
14187;SDS011;7175;51.978;5.330;2023-07-31T07:53:33;125.93;;;116.60;;
14187;SDS011;7175;51.978;5.330;2023-07-31T07:56:02;130.47;;;120.67;;
14187;SDS011;7175;51.978;5.330;2023-07-31T07:58:30;133.30;;;123.53;;
14187;SDS011;7175;51.978;5.330;2023-07-31T08:01:00;121.97;;;113.03;;
14187;SDS011;7175;51.978;5.330;2023-07-31T08:03:29;122.37;;;113.27;;
14187;SDS011;7175;51.978;5.330;2023-07-31T08:05:58;128.87;;;119.37;;
14187;SDS011;7175;51.978;5.330;2023-07-31T08:08:54;123.17;;;114.07;;
14187;SDS011;7175;51.978;5.330;2023-07-31T08:11:22;126.87;;;117.87;;
14187;SDS011;7175;51.978;5.330;2023-07-31T08:13:51;122.20;;;113.27;;
14187;SDS011;7175;51.978;5.330;2023-07-31T08:16:20;116.27;;;107.50;;
14187;SDS011;7175;51.978;5.330;2023-07-31T08:18:49;110.63;;;102.10;;
14187;SDS011;7175;51.978;5.330;2023-07-31T08:21:17;112.83;;;104.37;;
14187;SDS011;7175;51.978;5.330;2023-07-31T08:23:49;112.20;;;103.63;;
14187;SDS011;7175;51.978;5.330;2023-07-31T08:26:19;113.07;;;104.53;;
14187;SDS011;7175;51.978;5.330;2023-07-31T08:28:48;125.03;;;115.67;;
14187;SDS011;7175;51.978;5.330;2023-07-31T08:31:17;113.97;;;105.57;;
14187;SDS011;7175;51.978;5.330;2023-07-31T08:33:47;126.13;;;116.83;;
14187;SDS011;7175;51.978;5.330;2023-07-31T08:36:17;124.37;;;115.43;;
14187;SDS011;7175;51.978;5.330;2023-07-31T08:38:45;124.77;;;115.63;;
14187;SDS011;7175;51.978;5.330;2023-07-31T08:41:15;125.43;;;116.47;;
14187;SDS011;7175;51.978;5.330;2023-07-31T08:43:49;125.07;;;116.03;;
14187;SDS011;7175;51.978;5.330;2023-07-31T08:46:21;126.40;;;117.20;;
14187;SDS011;7175;51.978;5.330;2023-07-31T08:48:52;123.10;;;114.27;;
14187;SDS011;7175;51.978;5.330;2023-07-31T08:51:25;132.47;;;123.07;;
14187;SDS011;7175;51.978;5.330;2023-07-31T08:53:54;121.60;;;112.70;;
14187;SDS011;7175;51.978;5.330;2023-07-31T08:56:29;127.37;;;118.20;;
14187;SDS011;7175;51.978;5.330;2023-07-31T08:58:59;127.70;;;118.50;;
14187;SDS011;7175;51.978;5.330;2023-07-31T09:01:32;118.30;;;109.67;;
14187;SDS011;7175;51.978;5.330;2023-07-31T09:04:16;122.47;;;113.77;;
14187;SDS011;7175;51.978;5.330;2023-07-31T09:06:46;117.17;;;108.70;;
14187;SDS011;7175;51.978;5.330;2023-07-31T09:09:16;106.23;;;98.43;;
14187;SDS011;7175;51.978;5.330;2023-07-31T09:11:48;110.63;;;102.63;;
14187;SDS011;7175;51.978;5.330;2023-07-31T09:14:19;103.77;;;96.17;;
14187;SDS011;7175;51.978;5.330;2023-07-31T09:16:52;110.00;;;102.00;;
14187;SDS011;7175;51.978;5.330;2023-07-31T09:19:25;112.00;;;103.90;;
14187;SDS011;7175;51.978;5.330;2023-07-31T09:21:54;112.00;;;103.93;;
14187;SDS011;7175;51.978;5.330;2023-07-31T09:24:26;115.30;;;107.10;;
14187;SDS011;7175;51.978;5.330;2023-07-31T09:27:01;118.10;;;109.63;;
14187;SDS011;7175;51.978;5.330;2023-07-31T09:29:31;119.23;;;110.80;;
14187;SDS011;7175;51.978;5.330;2023-07-31T09:32:00;114.73;;;106.53;;
14187;SDS011;7175;51.978;5.330;2023-07-31T09:34:29;112.10;;;104.00;;
14187;SDS011;7175;51.978;5.330;2023-07-31T09:37:09;108.47;;;100.67;;
14187;SDS011;7175;51.978;5.330;2023-07-31T09:39:45;102.63;;;95.13;;
14187;SDS011;7175;51.978;5.330;2023-07-31T09:42:26;99.23;;;92.03;;
14187;SDS011;7175;51.978;5.330;2023-07-31T09:45:06;111.47;;;103.57;;
14187;SDS011;7175;51.978;5.330;2023-07-31T09:47:46;107.97;;;100.27;;
14187;SDS011;7175;51.978;5.330;2023-07-31T09:50:15;105.90;;;98.40;;
14187;SDS011;7175;51.978;5.330;2023-07-31T09:52:45;101.20;;;94.00;;
14187;SDS011;7175;51.978;5.330;2023-07-31T09:55:14;99.23;;;92.07;;
14187;SDS011;7175;51.978;5.330;2023-07-31T09:57:46;104.03;;;96.63;;
14187;SDS011;7175;51.978;5.330;2023-07-31T10:00:17;92.87;;;86.13;;
14187;SDS011;7175;51.978;5.330;2023-07-31T10:02:49;100.17;;;93.10;;
14187;SDS011;7175;51.978;5.330;2023-07-31T10:05:19;90.57;;;84.07;;
14187;SDS011;7175;51.978;5.330;2023-07-31T10:07:51;88.17;;;81.77;;
14187;SDS011;7175;51.978;5.330;2023-07-31T10:10:24;87.07;;;80.67;;
14187;SDS011;7175;51.978;5.330;2023-07-31T10:12:55;89.60;;;83.10;;
14187;SDS011;7175;51.978;5.330;2023-07-31T10:15:25;94.90;;;88.20;;
14187;SDS011;7175;51.978;5.330;2023-07-31T10:17:55;92.63;;;86.03;;
14187;SDS011;7175;51.978;5.330;2023-07-31T10:20:32;84.10;;;77.93;;
14187;SDS011;7175;51.978;5.330;2023-07-31T10:23:10;84.90;;;78.60;;
14187;SDS011;7175;51.978;5.330;2023-07-31T10:25:40;77.83;;;72.03;;
14187;SDS011;7175;51.978;5.330;2023-07-31T10:28:12;72.23;;;66.93;;
14187;SDS011;7175;51.978;5.330;2023-07-31T10:30:45;76.30;;;70.70;;
14187;SDS011;7175;51.978;5.330;2023-07-31T10:33:15;78.53;;;72.83;;
14187;SDS011;7175;51.978;5.330;2023-07-31T10:35:46;85.30;;;79.20;;
14187;SDS011;7175;51.978;5.330;2023-07-31T10:38:17;79.70;;;73.90;;
14187;SDS011;7175;51.978;5.330;2023-07-31T10:40:47;75.60;;;70.10;;
14187;SDS011;7175;51.978;5.330;2023-07-31T10:43:25;74.17;;;68.97;;
14187;SDS011;7175;51.978;5.330;2023-07-31T10:45:53;77.90;;;72.37;;
14187;SDS011;7175;51.978;5.330;2023-07-31T10:48:22;79.50;;;73.80;;
14187;SDS011;7175;51.978;5.330;2023-07-31T10:50:51;76.20;;;70.60;;
14187;SDS011;7175;51.978;5.330;2023-07-31T10:53:26;74.20;;;68.90;;
14187;SDS011;7175;51.978;5.330;2023-07-31T10:55:57;73.13;;;67.63;;
14187;SDS011;7175;51.978;5.330;2023-07-31T10:58:27;72.50;;;67.10;;
14187;SDS011;7175;51.978;5.330;2023-07-31T11:00:59;71.77;;;66.33;;
14187;SDS011;7175;51.978;5.330;2023-07-31T11:03:42;71.83;;;66.33;;
14187;SDS011;7175;51.978;5.330;2023-07-31T11:06:14;69.67;;;64.30;;
14187;SDS011;7175;51.978;5.330;2023-07-31T11:08:47;73.43;;;67.83;;
14187;SDS011;7175;51.978;5.330;2023-07-31T11:11:21;71.77;;;66.17;;
14187;SDS011;7175;51.978;5.330;2023-07-31T11:13:54;74.30;;;68.50;;
14187;SDS011;7175;51.978;5.330;2023-07-31T11:16:24;77.10;;;71.10;;
14187;SDS011;7175;51.978;5.330;2023-07-31T11:18:53;82.50;;;76.30;;
14187;SDS011;7175;51.978;5.330;2023-07-31T11:21:23;82.03;;;75.83;;
14187;SDS011;7175;51.978;5.330;2023-07-31T11:24:07;86.60;;;80.20;;
14187;SDS011;7175;51.978;5.330;2023-07-31T11:26:36;89.60;;;83.00;;
14187;SDS011;7175;51.978;5.330;2023-07-31T11:29:12;81.17;;;75.00;;
14187;SDS011;7175;51.978;5.330;2023-07-31T11:31:45;84.50;;;78.20;;
14187;SDS011;7175;51.978;5.330;2023-07-31T11:34:15;88.07;;;81.57;;
14187;SDS011;7175;51.978;5.330;2023-07-31T11:36:52;82.97;;;76.70;;
14187;SDS011;7175;51.978;5.330;2023-07-31T11:39:22;82.13;;;76.07;;
14187;SDS011;7175;51.978;5.330;2023-07-31T11:41:52;89.13;;;82.63;;
14187;SDS011;7175;51.978;5.330;2023-07-31T11:44:41;85.50;;;79.20;;
14187;SDS011;7175;51.978;5.330;2023-07-31T11:47:14;82.57;;;76.50;;
14187;SDS011;7175;51.978;5.330;2023-07-31T11:49:44;76.63;;;71.00;;
14187;SDS011;7175;51.978;5.330;2023-07-31T11:52:12;72.73;;;67.33;;
14187;SDS011;7175;51.978;5.330;2023-07-31T11:54:41;80.30;;;74.50;;
14187;SDS011;7175;51.978;5.330;2023-07-31T11:57:11;78.47;;;72.67;;
14187;SDS011;7175;51.978;5.330;2023-07-31T11:59:41;78.70;;;72.90;;
14187;SDS011;7175;51.978;5.330;2023-07-31T12:02:12;69.27;;;64.17;;
14187;SDS011;7175;51.978;5.330;2023-07-31T12:04:43;66.17;;;61.17;;
14187;SDS011;7175;51.978;5.330;2023-07-31T12:07:15;71.80;;;66.50;;
14187;SDS011;7175;51.978;5.330;2023-07-31T12:09:53;68.90;;;63.70;;
14187;SDS011;7175;51.978;5.330;2023-07-31T12:12:23;72.20;;;66.90;;
14187;SDS011;7175;51.978;5.330;2023-07-31T12:14:53;70.63;;;65.30;;
14187;SDS011;7175;51.978;5.330;2023-07-31T12:17:23;72.30;;;66.90;;
14187;SDS011;7175;51.978;5.330;2023-07-31T12:19:58;77.73;;;71.83;;
14187;SDS011;7175;51.978;5.330;2023-07-31T12:22:27;83.77;;;77.67;;
14187;SDS011;7175;51.978;5.330;2023-07-31T12:24:57;83.27;;;77.17;;
14187;SDS011;7175;51.978;5.330;2023-07-31T12:27:32;84.20;;;77.90;;
14187;SDS011;7175;51.978;5.330;2023-07-31T12:30:02;90.07;;;83.47;;
14187;SDS011;7175;51.978;5.330;2023-07-31T12:32:32;93.20;;;86.43;;
14187;SDS011;7175;51.978;5.330;2023-07-31T12:35:05;88.90;;;82.40;;
14187;SDS011;7175;51.978;5.330;2023-07-31T12:37:36;93.23;;;86.47;;
14187;SDS011;7175;51.978;5.330;2023-07-31T12:40:05;101.00;;;93.83;;
14187;SDS011;7175;51.978;5.330;2023-07-31T12:42:35;92.60;;;85.90;;
14187;SDS011;7175;51.978;5.330;2023-07-31T12:45:20;92.83;;;86.17;;
14187;SDS011;7175;51.978;5.330;2023-07-31T12:47:54;96.37;;;89.67;;
14187;SDS011;7175;51.978;5.330;2023-07-31T12:50:22;90.17;;;84.07;;
14187;SDS011;7175;51.978;5.330;2023-07-31T12:52:56;91.80;;;85.40;;
14187;SDS011;7175;51.978;5.330;2023-07-31T12:55:26;80.10;;;74.70;;
14187;SDS011;7175;51.978;5.330;2023-07-31T12:57:54;79.43;;;73.93;;
14187;SDS011;7175;51.978;5.330;2023-07-31T13:00:30;81.97;;;76.57;;
14187;SDS011;7175;51.978;5.330;2023-07-31T13:02:59;78.37;;;73.27;;
14187;SDS011;7175;51.978;5.330;2023-07-31T13:05:27;79.83;;;74.60;;
14187;SDS011;7175;51.978;5.330;2023-07-31T13:07:56;78.57;;;73.27;;
14187;SDS011;7175;51.978;5.330;2023-07-31T13:10:28;77.20;;;72.00;;
14187;SDS011;7175;51.978;5.330;2023-07-31T13:12:57;80.60;;;75.20;;
14187;SDS011;7175;51.978;5.330;2023-07-31T13:15:26;73.70;;;68.40;;
14187;SDS011;7175;51.978;5.330;2023-07-31T13:17:58;82.40;;;76.60;;
14187;SDS011;7175;51.978;5.330;2023-07-31T13:20:27;81.57;;;75.73;;
14187;SDS011;7175;51.978;5.330;2023-07-31T13:22:56;75.73;;;70.23;;
14187;SDS011;7175;51.978;5.330;2023-07-31T13:25:26;83.37;;;77.57;;
14187;SDS011;7175;51.978;5.330;2023-07-31T13:27:58;83.27;;;77.30;;
14187;SDS011;7175;51.978;5.330;2023-07-31T13:30:30;89.30;;;82.90;;
14187;SDS011;7175;51.978;5.330;2023-07-31T13:32:59;85.90;;;79.70;;
14187;SDS011;7175;51.978;5.330;2023-07-31T13:35:28;88.73;;;82.43;;
14187;SDS011;7175;51.978;5.330;2023-07-31T13:37:59;86.93;;;80.53;;
14187;SDS011;7175;51.978;5.330;2023-07-31T13:40:28;87.80;;;81.40;;
14187;SDS011;7175;51.978;5.330;2023-07-31T13:42:56;86.90;;;80.60;;
14187;SDS011;7175;51.978;5.330;2023-07-31T13:45:27;90.60;;;84.00;;
14187;SDS011;7175;51.978;5.330;2023-07-31T13:47:57;94.60;;;87.90;;
14187;SDS011;7175;51.978;5.330;2023-07-31T13:50:26;97.37;;;90.40;;
14187;SDS011;7175;51.978;5.330;2023-07-31T13:52:57;96.63;;;89.73;;
14187;SDS011;7175;51.978;5.330;2023-07-31T13:55:26;92.70;;;85.80;;
14187;SDS011;7175;51.978;5.330;2023-07-31T13:57:54;88.67;;;81.97;;
14187;SDS011;7175;51.978;5.330;2023-07-31T14:00:25;90.90;;;84.10;;
14187;SDS011;7175;51.978;5.330;2023-07-31T14:02:57;98.50;;;91.30;;
14187;SDS011;7175;51.978;5.330;2023-07-31T14:05:34;95.43;;;88.63;;
14187;SDS011;7175;51.978;5.330;2023-07-31T14:08:04;101.20;;;93.93;;
14187;SDS011;7175;51.978;5.330;2023-07-31T14:10:33;109.53;;;101.70;;
14187;SDS011;7175;51.978;5.330;2023-07-31T14:13:10;110.20;;;102.40;;
14187;SDS011;7175;51.978;5.330;2023-07-31T14:15:39;103.70;;;96.20;;
14187;SDS011;7175;51.978;5.330;2023-07-31T14:18:17;107.07;;;99.37;;
14187;SDS011;7175;51.978;5.330;2023-07-31T14:20:47;108.50;;;100.70;;
14187;SDS011;7175;51.978;5.330;2023-07-31T14:23:16;106.13;;;98.43;;
14187;SDS011;7175;51.978;5.330;2023-07-31T14:25:50;107.97;;;100.07;;
14187;SDS011;7175;51.978;5.330;2023-07-31T14:28:24;115.27;;;107.10;;
14187;SDS011;7175;51.978;5.330;2023-07-31T14:30:53;113.80;;;105.60;;
14187;SDS011;7175;51.978;5.330;2023-07-31T14:33:24;108.67;;;100.83;;
14187;SDS011;7175;51.978;5.330;2023-07-31T14:35:55;103.43;;;95.93;;
14187;SDS011;7175;51.978;5.330;2023-07-31T14:38:23;115.80;;;107.63;;